Time;durP1;ratioP1;P1;durP2;ratioP2;P2;SDS_P1;SDS_P2;PMS_P1;PMS_P2;Temp;Humidity;BMP_temperature;BMP_pressure;BME280_temperature;BME280_humidity;BME280_pressure;Samples;Min_cycle;Max_cycle;Signal;HPM_P1;HPM_P2
2021/10/30 00:01:18;;;;;;;11.40;9.50;;;;;;;;;;6214700;23;20144;-79
2021/10/30 00:03:43;;;;;;;11.27;8.77;;;;;;;;;;6213284;23;20202;-80
2021/10/30 00:06:08;;;;;;;9.27;8.17;;;;;;;;;;6187857;23;20234;-80
2021/10/30 00:08:37;;;;;;;9.97;8.13;;;;;;;;;;6213248;23;20136;-79
2021/10/30 00:11:02;;;;;;;9.53;8.53;;;;;;;;;;6186956;23;20144;-79
2021/10/30 00:13:28;;;;;;;8.60;7.70;;;;;;;;;;6213538;23;20366;-80
2021/10/30 00:15:57;;;;;;;10.80;8.87;;;;;;;;;;6212977;23;20175;-80
2021/10/30 00:18:22;;;;;;;9.50;7.80;;;;;;;;;;6215013;23;20217;-80
2021/10/30 00:20:48;;;;;;;9.13;7.90;;;;;;;;;;6214152;23;21113;-79
2021/10/30 00:23:13;;;;;;;11.03;7.43;;;;;;;;;;6213923;23;20223;-79
2021/10/30 00:25:39;;;;;;;8.40;7.60;;;;;;;;;;6213565;23;20472;-80
2021/10/30 00:28:04;;;;;;;8.33;7.50;;;;;;;;;;6213305;23;20190;-80
2021/10/30 00:30:29;;;;;;;9.50;7.63;;;;;;;;;;6213522;23;20147;-80
2021/10/30 00:32:54;;;;;;;9.97;7.77;;;;;;;;;;6213418;23;20210;-80
2021/10/30 00:35:20;;;;;;;10.80;7.57;;;;;;;;;;6212661;23;20506;-80
2021/10/30 00:37:45;;;;;;;9.73;8.50;;;;;;;;;;6212483;23;20517;-80
2021/10/30 00:40:12;;;;;;;9.63;8.73;;;;;;;;;;6212821;23;20197;-80
2021/10/30 00:42:38;;;;;;;10.27;8.97;;;;;;;;;;6212966;23;20170;-80
2021/10/30 00:45:03;;;;;;;11.47;8.57;;;;;;;;;;6212388;23;20391;-80
2021/10/30 00:47:29;;;;;;;12.60;9.30;;;;;;;;;;6212269;23;20414;-80
2021/10/30 00:49:54;;;;;;;12.37;9.90;;;;;;;;;;6212926;23;20160;-80
2021/10/30 00:52:20;;;;;;;10.17;9.17;;;;;;;;;;6186303;23;20160;-80
2021/10/30 00:54:46;;;;;;;11.10;9.13;;;;;;;;;;6212214;23;20171;-79
2021/10/30 00:57:11;;;;;;;11.07;9.87;;;;;;;;;;6211861;23;20205;-80
2021/10/30 00:59:39;;;;;;;10.30;9.20;;;;;;;;;;6213234;23;20374;-80
2021/10/30 01:02:04;;;;;;;10.40;8.70;;;;;;;;;;6212552;23;20407;-80
2021/10/30 01:04:30;;;;;;;9.93;8.93;;;;;;;;;;6211977;23;20406;-80
2021/10/30 01:06:57;;;;;;;11.97;9.30;;;;;;;;;;6212251;23;20653;-79
2021/10/30 01:09:22;;;;;;;11.50;9.63;;;;;;;;;;6213207;23;20136;-79
2021/10/30 01:11:48;;;;;;;12.00;9.30;;;;;;;;;;6212329;23;20374;-80
2021/10/30 01:14:14;;;;;;;9.77;8.77;;;;;;;;;;6212142;23;20144;-79
2021/10/30 01:16:39;;;;;;;10.20;9.03;;;;;;;;;;6212785;23;20172;-79
2021/10/30 01:19:05;;;;;;;11.60;9.50;;;;;;;;;;6212392;23;20150;-80
2021/10/30 01:21:34;;;;;;;10.63;9.00;;;;;;;;;;6212093;23;20151;-79
2021/10/30 01:23:59;;;;;;;11.43;8.20;;;;;;;;;;6212055;23;20378;-79
2021/10/30 01:26:28;;;;;;;10.53;7.90;;;;;;;;;;6211170;23;20419;-80
2021/10/30 01:28:53;;;;;;;7.60;6.90;;;;;;;;;;6211672;23;20194;-79
2021/10/30 01:31:20;;;;;;;10.30;8.73;;;;;;;;;;6212713;23;20839;-80
2021/10/30 01:33:47;;;;;;;10.50;8.07;;;;;;;;;;6211532;23;20498;-80
2021/10/30 01:36:13;;;;;;;10.20;6.40;;;;;;;;;;6211885;23;20466;-79
2021/10/30 01:38:38;;;;;;;9.37;7.40;;;;;;;;;;6211847;23;20709;-79
2021/10/30 01:41:04;;;;;;;9.30;7.20;;;;;;;;;;6211974;23;20387;-79
2021/10/30 01:43:29;;;;;;;8.50;7.10;;;;;;;;;;6211360;23;20140;-79
2021/10/30 01:45:55;;;;;;;7.33;6.60;;;;;;;;;;6211949;23;20509;-79
2021/10/30 01:48:26;;;;;;;8.40;6.77;;;;;;;;;;6211733;23;20669;-79
2021/10/30 01:50:52;;;;;;;9.70;6.77;;;;;;;;;;6212042;23;20635;-80
2021/10/30 01:53:17;;;;;;;6.77;6.00;;;;;;;;;;6212604;23;20383;-79
2021/10/30 01:55:42;;;;;;;8.17;6.50;;;;;;;;;;6212273;23;20160;-80
2021/10/30 01:58:07;;;;;;;7.70;6.03;;;;;;;;;;6213844;23;20151;-80
2021/10/30 02:00:33;;;;;;;5.80;5.13;;;;;;;;;;6213034;23;20155;-79
2021/10/30 02:02:59;;;;;;;6.30;5.70;;;;;;;;;;6212817;23;20155;-79
2021/10/30 02:05:24;;;;;;;4.83;4.43;;;;;;;;;;6213170;23;20383;-80
2021/10/30 02:07:50;;;;;;;6.13;5.53;;;;;;;;;;6215331;23;20251;-79
2021/10/30 02:10:15;;;;;;;8.53;5.77;;;;;;;;;;6214641;23;20200;-80
2021/10/30 02:12:41;;;;;;;5.93;5.27;;;;;;;;;;6214508;23;20143;-79
2021/10/30 02:15:07;;;;;;;5.63;5.07;;;;;;;;;;6214678;23;20219;-79
2021/10/30 02:17:36;;;;;;;5.37;4.80;;;;;;;;;;6213419;23;20148;-80
2021/10/30 02:20:02;;;;;;;6.40;5.80;;;;;;;;;;6213454;23;20462;-80
2021/10/30 02:22:27;;;;;;;6.03;5.43;;;;;;;;;;6214926;23;20374;-80
2021/10/30 02:24:53;;;;;;;7.10;4.20;;;;;;;;;;6213690;23;20366;-80
2021/10/30 02:27:18;;;;;;;5.47;4.97;;;;;;;;;;6213923;23;20498;-79
2021/10/30 02:29:43;;;;;;;7.10;4.90;;;;;;;;;;6213842;23;20171;-79
2021/10/30 02:32:09;;;;;;;6.97;4.97;;;;;;;;;;6213752;23;20144;-80
2021/10/30 02:34:34;;;;;;;5.70;5.03;;;;;;;;;;6213755;23;20197;-80
2021/10/30 02:37:00;;;;;;;4.90;4.40;;;;;;;;;;6214955;23;20172;-79
2021/10/30 02:39:25;;;;;;;11.07;5.30;;;;;;;;;;6214121;23;20144;-80
2021/10/30 02:41:50;;;;;;;5.57;4.77;;;;;;;;;;6213473;23;20167;-80
2021/10/30 02:44:15;;;;;;;5.73;4.80;;;;;;;;;;6213502;23;20629;-79
2021/10/30 02:46:41;;;;;;;5.00;4.50;;;;;;;;;;6213251;23;20182;-79
2021/10/30 02:49:06;;;;;;;4.53;4.10;;;;;;;;;;6214265;23;20198;-80
2021/10/30 02:51:31;;;;;;;7.40;4.40;;;;;;;;;;6214295;23;20151;-80
2021/10/30 02:53:56;;;;;;;6.13;3.97;;;;;;;;;;6187336;23;20186;-80
2021/10/30 02:56:22;;;;;;;4.87;4.47;;;;;;;;;;6213600;23;20608;-80
2021/10/30 02:58:48;;;;;;;5.33;4.17;;;;;;;;;;6213312;23;20163;-80
2021/10/30 03:01:13;;;;;;;4.70;4.30;;;;;;;;;;6208864;23;20155;-80
2021/10/30 03:03:38;;;;;;;5.70;4.80;;;;;;;;;;6210959;23;20861;-80
2021/10/30 03:06:03;;;;;;;5.00;4.50;;;;;;;;;;6211744;23;20649;-79
2021/10/30 03:08:29;;;;;;;5.00;4.50;;;;;;;;;;6212115;23;20737;-79
2021/10/30 03:10:54;;;;;;;5.10;4.50;;;;;;;;;;6212102;23;20144;-80
2021/10/30 03:13:19;;;;;;;4.67;4.27;;;;;;;;;;6212664;23;20151;-80
2021/10/30 03:15:45;;;;;;;4.80;4.17;;;;;;;;;;6212908;23;20159;-80
2021/10/30 03:18:10;;;;;;;5.73;5.13;;;;;;;;;;6212772;23;20179;-80
2021/10/30 03:20:35;;;;;;;5.77;4.77;;;;;;;;;;6211923;23;20148;-80
2021/10/30 03:23:00;;;;;;;6.03;4.87;;;;;;;;;;6212507;23;20144;-80
2021/10/30 03:25:26;;;;;;;5.80;5.20;;;;;;;;;;6212180;23;20164;-80
2021/10/30 03:27:51;;;;;;;9.83;4.77;;;;;;;;;;6212319;23;20179;-80
2021/10/30 03:30:18;;;;;;;5.87;5.03;;;;;;;;;;6212723;23;20164;-80
2021/10/30 03:32:43;;;;;;;7.97;5.70;;;;;;;;;;6212053;23;20211;-80
2021/10/30 03:35:09;;;;;;;6.30;5.43;;;;;;;;;;6212215;23;20415;-80
2021/10/30 03:37:35;;;;;;;6.23;5.63;;;;;;;;;;6184434;23;20156;-80
2021/10/30 03:40:01;;;;;;;5.47;4.87;;;;;;;;;;6186713;23;20163;-80
2021/10/30 03:42:26;;;;;;;5.87;5.37;;;;;;;;;;6212377;23;20714;-80
2021/10/30 03:44:52;;;;;;;6.13;5.53;;;;;;;;;;6212626;23;20644;-80
2021/10/30 03:47:17;;;;;;;11.10;5.50;;;;;;;;;;6213578;23;20174;-80
2021/10/30 03:49:43;;;;;;;7.63;6.47;;;;;;;;;;6212903;23;20140;-80
2021/10/30 03:52:08;;;;;;;6.60;5.60;;;;;;;;;;6214063;23;20159;-80
2021/10/30 03:54:33;;;;;;;7.30;6.60;;;;;;;;;;6212622;23;20476;-80
2021/10/30 03:56:58;;;;;;;7.80;5.97;;;;;;;;;;6212891;23;20214;-80
2021/10/30 03:59:24;;;;;;;7.77;6.53;;;;;;;;;;6213465;23;20206;-80
2021/10/30 04:01:49;;;;;;;6.90;6.23;;;;;;;;;;6213071;23;20155;-80
2021/10/30 04:04:14;;;;;;;6.67;5.97;;;;;;;;;;6213394;23;20234;-80
2021/10/30 04:06:40;;;;;;;6.90;6.00;;;;;;;;;;6215219;23;20175;-80
2021/10/30 04:09:05;;;;;;;7.57;5.70;;;;;;;;;;6214121;23;20152;-80
2021/10/30 04:11:30;;;;;;;7.30;6.53;;;;;;;;;;6187530;23;20147;-80
2021/10/30 04:13:55;;;;;;;9.00;6.43;;;;;;;;;;6212437;23;20140;-80
2021/10/30 04:16:21;;;;;;;6.00;5.40;;;;;;;;;;6212700;23;20509;-79
2021/10/30 04:18:46;;;;;;;7.93;6.60;;;;;;;;;;6186257;23;20187;-80
2021/10/30 04:21:11;;;;;;;7.60;6.80;;;;;;;;;;6212426;23;20144;-80
2021/10/30 04:23:37;;;;;;;8.00;6.63;;;;;;;;;;6212641;23;20152;-80
2021/10/30 04:26:03;;;;;;;7.47;6.50;;;;;;;;;;6212272;23;20171;-80
2021/10/30 04:28:28;;;;;;;7.67;6.77;;;;;;;;;;6213278;23;20433;-80
2021/10/30 04:30:54;;;;;;;6.30;5.70;;;;;;;;;;6212710;23;20203;-80
2021/10/30 04:33:19;;;;;;;7.80;6.63;;;;;;;;;;6211351;23;20147;-80
2021/10/30 04:35:47;;;;;;;9.13;7.53;;;;;;;;;;6213022;23;20170;-80
2021/10/30 04:38:12;;;;;;;6.80;6.20;;;;;;;;;;6212518;23;20151;-80
2021/10/30 04:40:37;;;;;;;12.03;7.30;;;;;;;;;;6185961;23;20383;-80
2021/10/30 04:43:04;;;;;;;8.60;6.83;;;;;;;;;;6210967;23;20144;-80
2021/10/30 04:45:30;;;;;;;9.50;6.57;;;;;;;;;;6213221;23;20168;-80
2021/10/30 04:47:55;;;;;;;10.70;8.10;;;;;;;;;;6212673;23;20489;-80
2021/10/30 04:50:20;;;;;;;10.17;7.50;;;;;;;;;;6212941;23;20483;-80
2021/10/30 04:52:45;;;;;;;9.50;7.80;;;;;;;;;;6211512;23;20197;-80
2021/10/30 04:55:11;;;;;;;8.80;7.33;;;;;;;;;;6211694;23;20212;-80
2021/10/30 04:57:36;;;;;;;9.53;8.60;;;;;;;;;;6186290;23;20205;-80
2021/10/30 05:00:03;;;;;;;8.43;7.63;;;;;;;;;;6212556;23;20154;-80
2021/10/30 05:02:28;;;;;;;8.70;7.90;;;;;;;;;;6211790;23;20152;-80
2021/10/30 05:04:53;;;;;;;9.03;7.90;;;;;;;;;;6211677;23;20699;-80
2021/10/30 05:07:18;;;;;;;9.20;7.93;;;;;;;;;;6212762;23;20175;-80
2021/10/30 05:09:44;;;;;;;10.97;8.13;;;;;;;;;;6213122;23;20140;-80
2021/10/30 05:12:09;;;;;;;9.90;8.13;;;;;;;;;;6211038;23;20154;-81
2021/10/30 05:14:35;;;;;;;8.80;7.90;;;;;;;;;;6212005;23;20486;-81
2021/10/30 05:17:00;;;;;;;9.67;8.37;;;;;;;;;;6213093;23;20164;-81
2021/10/30 05:19:26;;;;;;;8.87;7.97;;;;;;;;;;6213311;23;20236;-81
2021/10/30 05:21:51;;;;;;;10.73;8.23;;;;;;;;;;6212542;23;20148;-81
2021/10/30 05:24:16;;;;;;;9.20;8.30;;;;;;;;;;6211935;23;20225;-79
2021/10/30 05:26:41;;;;;;;11.77;9.27;;;;;;;;;;6184232;23;20183;-80
2021/10/30 05:29:07;;;;;;;10.20;9.20;;;;;;;;;;6212298;23;20638;-80
2021/10/30 05:31:32;;;;;;;11.33;9.00;;;;;;;;;;6211813;23;20148;-80
2021/10/30 05:33:57;;;;;;;10.33;9.23;;;;;;;;;;6211694;23;20505;-80
2021/10/30 05:36:26;;;;;;;9.90;8.90;;;;;;;;;;6184993;23;20513;-80
2021/10/30 05:38:52;;;;;;;8.97;7.90;;;;;;;;;;6208089;23;20148;-80
2021/10/30 05:41:18;;;;;;;10.47;9.40;;;;;;;;;;6212504;23;20506;-81
2021/10/30 05:43:43;;;;;;;9.83;8.77;;;;;;;;;;6213555;23;20371;-80
2021/10/30 05:46:09;;;;;;;10.57;9.57;;;;;;;;;;6214625;23;20876;-80
2021/10/30 05:48:35;;;;;;;10.10;9.10;;;;;;;;;;6213753;23;20148;-80
2021/10/30 05:51:00;;;;;;;9.50;8.60;;;;;;;;;;6213984;23;20287;-80
2021/10/30 05:53:26;;;;;;;10.47;9.10;;;;;;;;;;6211466;23;21015;-80
2021/10/30 05:55:51;;;;;;;10.43;8.80;;;;;;;;;;6213987;23;20180;-81
2021/10/30 05:58:16;;;;;;;10.30;8.97;;;;;;;;;;6214763;23;20148;-80
2021/10/30 06:00:41;;;;;;;10.40;8.73;;;;;;;;;;6213543;23;20170;-81
2021/10/30 06:03:06;;;;;;;11.93;9.43;;;;;;;;;;6211671;23;20159;-80
2021/10/30 06:05:32;;;;;;;10.03;9.03;;;;;;;;;;6213360;23;20172;-80
2021/10/30 06:07:58;;;;;;;10.00;8.80;;;;;;;;;;6214195;23;20203;-80
2021/10/30 06:10:24;;;;;;;8.67;7.87;;;;;;;;;;6215584;23;20144;-81
2021/10/30 06:12:49;;;;;;;11.43;8.83;;;;;;;;;;6214712;23;20848;-81
2021/10/30 06:15:14;;;;;;;10.17;8.43;;;;;;;;;;6214413;23;20232;-80
2021/10/30 06:17:40;;;;;;;9.83;8.10;;;;;;;;;;6215070;23;20222;-80
2021/10/30 06:20:05;;;;;;;10.90;8.30;;;;;;;;;;6214997;23;20155;-80
2021/10/30 06:22:31;;;;;;;9.50;8.10;;;;;;;;;;6214652;23;20144;-81
2021/10/30 06:24:56;;;;;;;8.20;7.30;;;;;;;;;;6215006;23;20716;-80
2021/10/30 06:27:21;;;;;;;9.53;7.40;;;;;;;;;;6213606;23;20199;-80
2021/10/30 06:29:47;;;;;;;8.90;8.00;;;;;;;;;;6214779;23;20136;-80
2021/10/30 06:32:12;;;;;;;9.27;8.10;;;;;;;;;;6213826;23;20144;-80
2021/10/30 06:34:37;;;;;;;11.00;7.87;;;;;;;;;;6214644;23;20354;-80
2021/10/30 06:37:03;;;;;;;8.80;7.90;;;;;;;;;;6215536;23;20621;-81
2021/10/30 06:39:28;;;;;;;9.17;7.67;;;;;;;;;;6211790;23;20298;-81
2021/10/30 06:41:53;;;;;;;8.80;7.60;;;;;;;;;;6213386;23;20218;-80
2021/10/30 06:44:19;;;;;;;12.53;7.13;;;;;;;;;;6213373;23;20490;-80
2021/10/30 06:46:44;;;;;;;10.80;8.20;;;;;;;;;;6210493;23;20171;-80
2021/10/30 06:49:11;;;;;;;9.00;8.10;;;;;;;;;;6213592;23;20152;-81
2021/10/30 06:51:38;;;;;;;9.47;8.47;;;;;;;;;;6212674;23;20144;-80
2021/10/30 06:54:04;;;;;;;8.67;7.73;;;;;;;;;;6212744;23;20406;-81
2021/10/30 06:56:29;;;;;;;9.20;8.30;;;;;;;;;;6214579;23;20853;-80
2021/10/30 06:58:54;;;;;;;7.67;6.97;;;;;;;;;;6215585;23;20151;-80
2021/10/30 07:01:20;;;;;;;9.47;7.97;;;;;;;;;;6214818;23;20222;-80
2021/10/30 07:03:45;;;;;;;8.43;7.63;;;;;;;;;;6215156;23;20151;-80
2021/10/30 07:06:11;;;;;;;7.13;6.10;;;;;;;;;;6211976;23;20699;-80
2021/10/30 07:08:36;;;;;;;9.37;8.07;;;;;;;;;;6213644;23;20140;-80
2021/10/30 07:11:01;;;;;;;8.17;7.13;;;;;;;;;;6214565;23;20144;-81
2021/10/30 07:13:26;;;;;;;9.27;7.10;;;;;;;;;;6213712;23;20144;-81
2021/10/30 07:15:52;;;;;;;9.53;6.43;;;;;;;;;;6213690;23;20497;-80
2021/10/30 07:18:17;;;;;;;7.20;6.43;;;;;;;;;;6212709;23;20199;-80
2021/10/30 07:20:42;;;;;;;8.40;7.10;;;;;;;;;;6212137;23;20156;-80
2021/10/30 07:23:08;;;;;;;6.70;6.00;;;;;;;;;;6210561;23;20147;-81
2021/10/30 07:25:33;;;;;;;7.50;6.30;;;;;;;;;;6212762;23;20172;-80
2021/10/30 07:27:58;;;;;;;9.37;6.80;;;;;;;;;;6218919;23;20614;-80
2021/10/30 07:30:23;;;;;;;8.53;6.63;;;;;;;;;;6213371;23;20218;-80
2021/10/30 07:32:52;;;;;;;11.63;6.63;;;;;;;;;;6211568;23;20144;-80
2021/10/30 07:35:18;;;;;;;9.10;7.00;;;;;;;;;;6184776;23;20203;-80
2021/10/30 07:37:44;;;;;;;7.43;6.40;;;;;;;;;;6213011;23;20579;-80
2021/10/30 07:40:09;;;;;;;7.70;6.33;;;;;;;;;;6212593;23;20374;-80
2021/10/30 07:42:34;;;;;;;7.70;6.50;;;;;;;;;;6211120;23;20628;-80
2021/10/30 07:45:00;;;;;;;6.90;6.20;;;;;;;;;;6210516;23;20164;-79
2021/10/30 07:47:25;;;;;;;7.07;6.47;;;;;;;;;;6211440;23;20175;-80
2021/10/30 07:49:51;;;;;;;9.93;6.37;;;;;;;;;;6213479;23;20140;-80
2021/10/30 07:52:16;;;;;;;8.00;6.60;;;;;;;;;;6211738;23;20168;-80
2021/10/30 07:54:41;;;;;;;6.77;5.50;;;;;;;;;;6211789;23;20242;-80
2021/10/30 07:57:07;;;;;;;6.93;6.23;;;;;;;;;;6211973;23;20372;-79
2021/10/30 07:59:33;;;;;;;7.13;6.40;;;;;;;;;;6211920;23;20152;-79
2021/10/30 08:01:59;;;;;;;7.03;6.33;;;;;;;;;;6209613;23;20359;-79
2021/10/30 08:04:24;;;;;;;9.20;6.10;;;;;;;;;;6211713;23;20159;-80
2021/10/30 08:06:49;;;;;;;5.90;5.20;;;;;;;;;;6211292;23;20418;-80
2021/10/30 08:09:15;;;;;;;8.33;6.00;;;;;;;;;;6212957;23;20468;-79
2021/10/30 08:11:40;;;;;;;9.63;6.87;;;;;;;;;;6207775;23;20471;-80
2021/10/30 08:14:06;;;;;;;6.50;5.90;;;;;;;;;;6211371;23;20167;-81
2021/10/30 08:16:31;;;;;;;7.70;5.80;;;;;;;;;;6214120;23;20313;-80
2021/10/30 08:18:57;;;;;;;7.60;6.70;;;;;;;;;;6211145;23;20487;-81
2021/10/30 08:21:22;;;;;;;7.20;6.50;;;;;;;;;;6210226;23;20198;-81
2021/10/30 08:23:49;;;;;;;7.83;5.87;;;;;;;;;;6184777;23;20562;-82
2021/10/30 08:26:15;;;;;;;6.27;5.70;;;;;;;;;;6210724;23;21089;-81
2021/10/30 08:28:40;;;;;;;7.80;5.83;;;;;;;;;;6212722;23;20144;-81
2021/10/30 08:31:05;;;;;;;10.47;6.90;;;;;;;;;;6210716;23;20215;-81
2021/10/30 08:33:31;;;;;;;7.70;6.77;;;;;;;;;;6211674;23;20163;-81
2021/10/30 08:35:56;;;;;;;9.30;6.40;;;;;;;;;;6211018;23;20171;-80
2021/10/30 08:38:22;;;;;;;7.40;6.70;;;;;;;;;;6185759;23;20474;-81
2021/10/30 08:40:47;;;;;;;9.40;6.20;;;;;;;;;;6184772;23;20156;-80
2021/10/30 08:43:23;;;;;;;8.13;6.33;;;;;;;;;;6212109;23;20494;-81
2021/10/30 08:45:49;;;;;;;6.87;6.17;;;;;;;;;;6213808;23;20196;-81
2021/10/30 08:48:17;;;;;;;8.87;6.43;;;;;;;;;;6213802;23;20494;-80
2021/10/30 08:50:42;;;;;;;7.07;6.37;;;;;;;;;;6211983;23;20833;-81
2021/10/30 08:53:08;;;;;;;8.77;6.83;;;;;;;;;;6210957;23;20502;-80
2021/10/30 08:55:33;;;;;;;7.00;6.30;;;;;;;;;;6213175;23;20170;-80
2021/10/30 08:58:02;;;;;;;7.43;6.73;;;;;;;;;;6212360;23;20206;-81
2021/10/30 09:00:27;;;;;;;7.90;7.10;;;;;;;;;;6218142;23;20982;-80
2021/10/30 09:02:54;;;;;;;7.30;6.17;;;;;;;;;;6217435;23;20370;-80
2021/10/30 09:05:22;;;;;;;9.13;6.97;;;;;;;;;;6216709;23;20218;-80
2021/10/30 09:07:50;;;;;;;7.03;6.37;;;;;;;;;;6216475;23;20418;-81
2021/10/30 09:10:20;;;;;;;8.70;6.90;;;;;;;;;;6215996;23;20375;-81
2021/10/30 09:12:53;;;;;;;9.10;6.17;;;;;;;;;;6216386;23;20374;-80
2021/10/30 09:15:28;;;;;;;7.33;5.90;;;;;;;;;;6214239;23;20393;-81
2021/10/30 09:17:53;;;;;;;8.13;6.67;;;;;;;;;;6213948;23;20389;-81
2021/10/30 09:20:18;;;;;;;8.00;6.63;;;;;;;;;;6186885;23;20387;-80
2021/10/30 09:22:53;;;;;;;12.20;6.70;;;;;;;;;;6212637;23;20143;-81
2021/10/30 09:25:18;;;;;;;7.23;6.10;;;;;;;;;;6214686;23;20175;-80
2021/10/30 09:28:02;;;;;;;9.37;6.83;;;;;;;;;;6214205;23;20906;-81
2021/10/30 09:30:28;;;;;;;7.63;6.93;;;;;;;;;;6212209;23;20154;-81
2021/10/30 09:32:53;;;;;;;8.67;7.00;;;;;;;;;;6212865;23;20364;-81
2021/10/30 09:35:33;;;;;;;6.60;6.00;;;;;;;;;;6213266;23;20206;-81
2021/10/30 09:37:58;;;;;;;8.70;6.50;;;;;;;;;;6213919;23;20371;-80
2021/10/30 09:40:28;;;;;;;7.30;6.20;;;;;;;;;;6214918;23;20367;-80
2021/10/30 09:43:05;;;;;;;6.60;6.00;;;;;;;;;;6213739;23;20571;-80
2021/10/30 09:45:31;;;;;;;6.50;5.83;;;;;;;;;;6211684;23;20421;-79
2021/10/30 09:47:58;;;;;;;6.60;5.90;;;;;;;;;;6212788;23;20421;-80
2021/10/30 09:50:26;;;;;;;7.00;5.83;;;;;;;;;;6213144;23;20218;-79
2021/10/30 09:52:51;;;;;;;6.00;5.40;;;;;;;;;;6213249;23;20359;-80
2021/10/30 09:55:23;;;;;;;7.87;6.03;;;;;;;;;;6212099;23;20733;-79
2021/10/30 09:57:56;;;;;;;6.20;5.47;;;;;;;;;;6213864;23;20602;-81
2021/10/30 10:00:24;;;;;;;8.27;6.40;;;;;;;;;;6185596;23;20403;-80
2021/10/30 10:02:50;;;;;;;9.50;5.80;;;;;;;;;;6212848;23;20762;-80
2021/10/30 10:05:18;;;;;;;6.67;5.97;;;;;;;;;;6213009;23;20885;-80
2021/10/30 10:07:43;;;;;;;5.50;5.00;;;;;;;;;;6213339;23;20415;-80
2021/10/30 10:10:09;;;;;;;6.80;5.20;;;;;;;;;;6213428;23;20364;-80
2021/10/30 10:12:34;;;;;;;6.60;5.90;;;;;;;;;;6213207;23;20145;-80
2021/10/30 10:15:01;;;;;;;5.90;5.40;;;;;;;;;;6213429;23;20983;-81
2021/10/30 10:17:26;;;;;;;7.67;5.60;;;;;;;;;;6213782;23;20218;-80
2021/10/30 10:19:51;;;;;;;7.23;6.53;;;;;;;;;;6213341;23;21165;-81
2021/10/30 10:22:17;;;;;;;6.20;5.70;;;;;;;;;;6213007;23;20148;-81
2021/10/30 10:24:42;;;;;;;9.33;6.00;;;;;;;;;;6212519;23;20160;-80
2021/10/30 10:27:08;;;;;;;6.50;5.90;;;;;;;;;;6212720;23;20182;-81
2021/10/30 10:29:35;;;;;;;7.90;6.50;;;;;;;;;;6187594;23;20198;-81
2021/10/30 10:32:02;;;;;;;6.73;6.13;;;;;;;;;;6214072;23;20359;-81
2021/10/30 10:34:32;;;;;;;7.80;6.10;;;;;;;;;;6215337;23;20367;-81
2021/10/30 10:37:12;;;;;;;6.13;5.57;;;;;;;;;;6215036;23;20387;-81
2021/10/30 10:39:38;;;;;;;7.40;6.37;;;;;;;;;;6215786;23;20403;-81
2021/10/30 10:42:04;;;;;;;7.83;6.00;;;;;;;;;;6215224;23;20391;-81
2021/10/30 10:44:42;;;;;;;6.33;5.73;;;;;;;;;;6215809;23;20398;-81
2021/10/30 10:47:08;;;;;;;6.67;6.03;;;;;;;;;;6214141;23;20172;-81
2021/10/30 10:52:04;;;;;;;7.40;6.03;;;;;;;;;;6215553;23;20503;-81
2021/10/30 10:54:48;;;;;;;7.17;6.43;;;;;;;;;;6215550;23;20367;-81
2021/10/30 10:57:20;;;;;;;6.67;6.00;;;;;;;;;;6213760;23;20375;-81
2021/10/30 10:59:45;;;;;;;6.43;5.83;;;;;;;;;;6215157;23;20368;-81
2021/10/30 11:02:20;;;;;;;8.87;5.80;;;;;;;;;;6215827;23;20371;-81
2021/10/30 11:05:04;;;;;;;7.60;5.20;;;;;;;;;;6211839;23;20143;-81
2021/10/30 11:07:29;;;;;;;7.70;5.10;;;;;;;;;;6214012;23;20758;-81
2021/10/30 11:09:59;;;;;;;7.13;5.53;;;;;;;;;;6219025;23;20367;-81
2021/10/30 11:12:25;;;;;;;6.10;4.30;;;;;;;;;;6190533;23;20159;-81
2021/10/30 11:14:56;;;;;;;5.00;3.90;;;;;;;;;;6216873;23;20737;-81
2021/10/30 11:17:24;;;;;;;6.33;5.73;;;;;;;;;;6216186;23;20844;-81
2021/10/30 11:19:51;;;;;;;7.93;5.20;;;;;;;;;;6216677;23;20429;-81
2021/10/30 11:22:20;;;;;;;4.63;4.23;;;;;;;;;;6187009;23;20454;-81
2021/10/30 11:24:54;;;;;;;4.53;4.13;;;;;;;;;;6214295;23;20427;-81
2021/10/30 11:27:19;;;;;;;7.67;4.97;;;;;;;;;;6216980;23;20414;-80
2021/10/30 11:29:49;;;;;;;6.17;4.80;;;;;;;;;;6213751;23;20783;-80
2021/10/30 11:32:14;;;;;;;5.30;4.80;;;;;;;;;;6215879;23;20144;-81
2021/10/30 11:34:40;;;;;;;6.50;4.70;;;;;;;;;;6213429;23;20710;-81
2021/10/30 11:37:05;;;;;;;5.43;4.33;;;;;;;;;;6189762;23;20159;-81
2021/10/30 11:39:31;;;;;;;5.03;4.53;;;;;;;;;;6214360;23;20151;-81
2021/10/30 11:41:57;;;;;;;4.67;4.27;;;;;;;;;;6199080;23;20250;-81
2021/10/30 11:44:23;;;;;;;4.73;4.33;;;;;;;;;;6214823;23;20453;-82
2021/10/30 11:46:55;;;;;;;6.80;5.30;;;;;;;;;;6214149;23;20180;-82
2021/10/30 11:49:26;;;;;;;5.27;4.77;;;;;;;;;;6212154;23;20471;-81
2021/10/30 11:51:52;;;;;;;5.50;4.67;;;;;;;;;;6215174;23;20363;-81
2021/10/30 11:54:19;;;;;;;4.40;4.00;;;;;;;;;;6214121;23;20375;-82
2021/10/30 11:56:45;;;;;;;5.40;4.90;;;;;;;;;;6213495;23;20399;-81
2021/10/30 11:59:10;;;;;;;4.73;4.30;;;;;;;;;;6212320;23;20454;-81
2021/10/30 12:01:45;;;;;;;5.30;4.83;;;;;;;;;;6213673;23;20152;-81
2021/10/30 12:04:12;;;;;;;4.87;4.37;;;;;;;;;;6211729;23;20574;-81
2021/10/30 12:06:38;;;;;;;3.87;3.57;;;;;;;;;;6211402;23;20912;-81
2021/10/30 12:09:23;;;;;;;4.60;3.90;;;;;;;;;;6213000;23;20367;-81
2021/10/30 12:11:49;;;;;;;4.60;4.20;;;;;;;;;;6211375;23;20390;-82
2021/10/30 12:14:41;;;;;;;5.33;4.20;;;;;;;;;;6213108;23;20387;-82
2021/10/30 12:17:06;;;;;;;6.20;3.97;;;;;;;;;;6208602;23;20383;-82
2021/10/30 12:19:32;;;;;;;5.77;4.17;;;;;;;;;;6212058;23;20417;-81
2021/10/30 12:22:08;;;;;;;7.43;4.10;;;;;;;;;;6209943;23;20148;-82
2021/10/30 12:24:34;;;;;;;4.77;4.30;;;;;;;;;;6215722;23;20458;-81
2021/10/30 12:27:03;;;;;;;6.10;4.00;;;;;;;;;;6215607;23;20467;-81
2021/10/30 12:29:28;;;;;;;5.93;4.77;;;;;;;;;;6212945;23;20148;-81
2021/10/30 12:32:04;;;;;;;4.57;4.17;;;;;;;;;;6213948;23;20438;-81
2021/10/30 12:34:32;;;;;;;4.50;4.03;;;;;;;;;;6212026;23;20606;-81
2021/10/30 12:36:59;;;;;;;4.00;3.70;;;;;;;;;;6215644;23;20442;-82
2021/10/30 12:39:24;;;;;;;5.70;4.70;;;;;;;;;;6214728;23;20394;-81
2021/10/30 12:42:04;;;;;;;6.60;4.50;;;;;;;;;;6212594;23;20415;-81
2021/10/30 12:44:31;;;;;;;5.43;4.50;;;;;;;;;;6214205;23;20148;-81
2021/10/30 12:46:57;;;;;;;4.70;4.30;;;;;;;;;;6188700;23;20422;-81
2021/10/30 12:49:23;;;;;;;4.30;3.90;;;;;;;;;;6214849;23;20363;-81
2021/10/30 12:52:17;;;;;;;4.80;4.40;;;;;;;;;;6214491;23;20363;-81
2021/10/30 12:54:55;;;;;;;6.00;4.77;;;;;;;;;;6211900;23;20406;-81
2021/10/30 12:57:22;;;;;;;5.00;4.47;;;;;;;;;;6214420;23;20459;-82
2021/10/30 12:59:57;;;;;;;5.97;4.77;;;;;;;;;;6215020;23;20371;-82
2021/10/30 13:02:24;;;;;;;4.87;4.17;;;;;;;;;;6213259;23;20355;-82
2021/10/30 13:04:50;;;;;;;4.87;4.30;;;;;;;;;;6213854;23;20371;-81
2021/10/30 13:07:17;;;;;;;6.23;4.57;;;;;;;;;;6215037;23;20415;-81
2021/10/30 13:09:52;;;;;;;5.60;4.17;;;;;;;;;;6213770;23;20150;-82
2021/10/30 13:12:18;;;;;;;7.73;4.23;;;;;;;;;;6210689;23;20398;-82
2021/10/30 13:14:43;;;;;;;4.40;4.00;;;;;;;;;;6212333;23;20696;-81
2021/10/30 13:17:08;;;;;;;5.87;4.00;;;;;;;;;;6209635;23;20176;-81
2021/10/30 13:19:33;;;;;;;5.33;4.60;;;;;;;;;;6192713;23;20247;-81
2021/10/30 13:21:59;;;;;;;5.53;3.80;;;;;;;;;;6217674;23;20151;-81
2021/10/30 13:24:24;;;;;;;4.30;3.90;;;;;;;;;;6190558;23;20163;-80
2021/10/30 13:26:49;;;;;;;5.90;4.23;;;;;;;;;;6216727;23;20176;-81
2021/10/30 13:29:15;;;;;;;4.63;4.07;;;;;;;;;;6217043;23;20146;-81
2021/10/30 13:31:40;;;;;;;6.20;3.70;;;;;;;;;;6214395;23;20172;-81
2021/10/30 13:34:06;;;;;;;4.63;4.10;;;;;;;;;;6215299;23;20144;-81
2021/10/30 13:36:31;;;;;;;6.23;3.50;;;;;;;;;;6213677;23;20225;-81
2021/10/30 13:38:58;;;;;;;4.70;3.70;;;;;;;;;;6213032;23;20226;-80
2021/10/30 13:41:26;;;;;;;4.10;3.70;;;;;;;;;;6214970;23;20163;-81
2021/10/30 13:43:52;;;;;;;4.00;3.60;;;;;;;;;;6214933;23;20374;-79
2021/10/30 13:46:21;;;;;;;4.10;3.70;;;;;;;;;;6214181;23;20464;-80
2021/10/30 13:48:47;;;;;;;5.37;4.10;;;;;;;;;;6213646;23;20872;-80
2021/10/30 13:51:12;;;;;;;4.17;3.43;;;;;;;;;;6212085;23;20367;-78
2021/10/30 13:53:38;;;;;;;7.20;4.80;;;;;;;;;;6211016;23;20144;-79
2021/10/30 13:56:03;;;;;;;4.30;3.90;;;;;;;;;;6212530;23;20171;-79
2021/10/30 13:58:28;;;;;;;5.47;4.90;;;;;;;;;;6212602;23;20144;-78
2021/10/30 14:00:54;;;;;;;8.47;4.60;;;;;;;;;;6211211;23;20186;-78
2021/10/30 14:03:19;;;;;;;6.43;5.40;;;;;;;;;;6212387;23;20144;-78
2021/10/30 14:05:45;;;;;;;6.97;5.37;;;;;;;;;;6185872;23;20183;-78
2021/10/30 14:08:10;;;;;;;7.87;5.20;;;;;;;;;;6212120;23;20172;-78
2021/10/30 14:10:36;;;;;;;5.23;4.70;;;;;;;;;;6212407;23;20151;-78
2021/10/30 14:13:01;;;;;;;5.43;4.60;;;;;;;;;;6212527;23;20587;-79
2021/10/30 14:15:26;;;;;;;6.10;5.00;;;;;;;;;;6212879;23;20911;-78
2021/10/30 14:17:51;;;;;;;5.10;4.60;;;;;;;;;;6213475;23;20167;-77
2021/10/30 14:20:17;;;;;;;4.97;4.53;;;;;;;;;;6213520;23;20529;-79
2021/10/30 14:22:42;;;;;;;4.67;4.27;;;;;;;;;;6214248;23;20186;-80
2021/10/30 14:25:07;;;;;;;7.00;5.10;;;;;;;;;;6211287;23;20255;-79
2021/10/30 14:27:33;;;;;;;5.13;4.63;;;;;;;;;;6213457;23;20179;-78
2021/10/30 14:29:59;;;;;;;5.30;4.80;;;;;;;;;;6211091;23;20152;-78
2021/10/30 14:32:25;;;;;;;5.43;4.93;;;;;;;;;;6212095;23;20144;-78
2021/10/30 14:34:52;;;;;;;5.30;4.80;;;;;;;;;;6212400;23;20501;-78
2021/10/30 14:37:17;;;;;;;5.10;4.60;;;;;;;;;;6213845;23;20227;-79
2021/10/30 14:39:43;;;;;;;5.33;4.30;;;;;;;;;;6213876;23;20391;-79